Ops Hamburg — A8VS9 — position and weather

sailwx.info

Track history (hours):
 
Tides and Currents Weather Stations Pressure Air Temp Water Temp Dewpoint Dewpoint Depression Visibility Wind Speed Wind Dir Waves Ship Positions

Ops Hamburg

Last reported at 2015-May-19 10:19 UTC. Time now 2015-May-27 19:51 UTC.
Position N 37°04' E 004°23'.
Warning: this ship's position is 8 days out of date.

Length 148 m; draft 8 m.

Type: Cargo ship. MMSI: 636092040.

Date/timePositionNaut miles runAvg speedWind from/ knotsBaromVisibWave heightAir tempDewpointWater temp
2015-May-19 10:19N 37°04' E 004°23'2212.4
2015-May-19 08:31N 37°08' E 004°51'16811.9
2015-May-18 18:27N 37°34' E 008°19'26011.2
2015-May-17 19:12N 36°15' E 013°29'711.7
2015-May-17 18:33N 36°11' E 013°37'1611.3
2015-May-17 17:11N 36°01' E 013°51'711.2
2015-May-17 16:33N 35°57' E 013°58'1111.2
2015-May-17 15:33N 35°51' E 014°10'1111.0
2015-May-17 14:33N 35°45' E 014°21'1110.8
2015-May-17 13:33N 35°47' E 014°34'2 0.8
2015-May-17 10:32N 35°49' E 014°32'0 0.0
2015-May-17 09:29N 35°49' E 014°32'0 0.0
2015-May-17 07:29N 35°49' E 014°32'0 0.0
2015-May-17 06:23N 35°49' E 014°32'0 0.0
2015-May-17 05:29N 35°49' E 014°32'0 0.0
2015-May-17 04:29N 35°49' E 014°32'0 0.0
2015-May-17 03:32N 35°49' E 014°32'0 0.0
2015-May-17 02:32N 35°49' E 014°32'0 0.0
2015-May-17 01:32N 35°49' E 014°32'0 0.0
2015-May-17 00:32N 35°49' E 014°32'0 0.0
2015-May-16 23:29N 35°49' E 014°32'0 0.0
2015-May-16 22:23N 35°49' E 014°32'0 0.0
2015-May-16 21:32N 35°49' E 014°32'0 0.0
2015-May-16 20:32N 35°49' E 014°32'0 0.0
2015-May-16 19:29N 35°49' E 014°32'0 0.0
2015-May-16 18:32N 35°49' E 014°32'0 0.0
2015-May-16 17:29N 35°49' E 014°32'0 0.0
2015-May-16 16:29N 35°49' E 014°32'0 0.0
2015-May-16 15:29N 35°49' E 014°32'0 0.0
2015-May-16 14:29N 35°49' E 014°32'0 0.0
2015-May-16 13:33N 35°49' E 014°32'3 3.1
2015-May-16 12:33N 35°48' E 014°36'4 3.6
2015-May-16 11:31N 35°51' E 014°39'0 0.0
2015-May-16 10:33N 35°51' E 014°39'0 0.0
2015-May-16 09:33N 35°51' E 014°39'0 0.0
2015-May-16 08:33N 35°51' E 014°39'0 0.1
2015-May-16 07:30N 35°51' E 014°39'0 0.0
2015-May-16 06:33N 35°51' E 014°39'0 0.0
2015-May-16 05:33N 35°51' E 014°39'0 0.0
2015-May-16 04:30N 35°51' E 014°39'0 0.0
2015-May-16 03:33N 35°51' E 014°39'0 0.1
2015-May-16 02:33N 35°51' E 014°39'0 0.0
2015-May-16 01:33N 35°51' E 014°39'0 0.0
2015-May-16 00:33N 35°51' E 014°39'0 0.0
2015-May-15 23:33N 35°51' E 014°39'0 0.1
2015-May-15 22:33N 35°51' E 014°39'0 0.0
2015-May-15 21:33N 35°51' E 014°39'0 0.1
2015-May-15 20:33N 35°51' E 014°39'0 0.0
2015-May-15 19:33N 35°51' E 014°39'0 0.1
2015-May-15 18:33N 35°51' E 014°39'0 0.0
2015-May-15 17:33N 35°51' E 014°39'0 0.0
2015-May-15 16:33N 35°51' E 014°39'0 0.0
2015-May-15 15:33N 35°51' E 014°39'0 0.0
2015-May-15 14:30N 35°51' E 014°39'0 0.0
2015-May-15 13:33N 35°51' E 014°39'0 0.0
2015-May-15 12:33N 35°51' E 014°39'0 0.0
2015-May-15 11:33N 35°51' E 014°39'0 0.0
2015-May-15 10:33N 35°51' E 014°39'0 0.0
2015-May-15 09:33N 35°51' E 014°39'0 0.0
2015-May-15 08:33N 35°51' E 014°39'0 0.0
2015-May-15 07:33N 35°51' E 014°39'0 0.0
2015-May-15 06:33N 35°51' E 014°39'0 0.0
2015-May-15 05:33N 35°51' E 014°39'0 0.0
2015-May-15 04:33N 35°51' E 014°39'5 5.1
2015-May-15 03:33N 35°47' E 014°35'1110.7
2015-May-15 02:33N 35°45' E 014°22'1010.2
2015-May-15 01:33N 35°51' E 014°11'1010.4
2015-May-15 00:33N 35°56' E 014°00'1111.0
2015-May-14 23:33N 36°02' E 013°49'1111.3
2015-May-14 22:33N 36°08' E 013°37'1211.6
2015-May-14 21:33N 36°14' E 013°25'1111.4
2015-May-14 20:33N 36°20' E 013°13'1111.5
2015-May-14 19:33N 36°26' E 013°01'1211.7
2015-May-14 18:33N 36°33' E 012°48'1211.6
2015-May-14 17:33N 36°39' E 012°36'1211.8
2015-May-14 16:33N 36°45' E 012°24'1211.8
2015-May-14 15:33N 36°52' E 012°11'1211.7
2015-May-14 14:33N 36°58' E 011°59'1211.7
2015-May-14 13:33N 37°04' E 011°46'1212.1
2015-May-14 12:33N 37°10' E 011°34'1212.3
2015-May-14 11:33N 37°17' E 011°21'2712.1
2015-May-14 09:17N 37°27' E 010°48'1112.4
2015-May-14 08:23N 37°30' E 010°35'  
Track history (hours):
 
Tides and Currents Weather Stations Pressure Air Temp Water Temp Dewpoint Dewpoint Depression Visibility Wind Speed Wind Dir Waves Ship Positions

Ops Hamburg

Last reported at 2015-May-19 10:19 UTC. Time now 2015-May-27 19:51 UTC.
Position N 37°04' E 004°23'.
Warning: this ship's position is 8 days out of date.

Length 148 m; draft 8 m.

Type: Cargo ship. MMSI: 636092040.

Date/timePositionNaut miles runAvg speedWind from/ knotsBaromVisibWave heightAir tempDewpointWater temp
2015-May-19 10:19N 37°04' E 004°23'2212.4
2015-May-19 08:31N 37°08' E 004°51'16811.9
2015-May-18 18:27N 37°34' E 008°19'26011.2
2015-May-17 19:12N 36°15' E 013°29'711.7
2015-May-17 18:33N 36°11' E 013°37'1611.3
2015-May-17 17:11N 36°01' E 013°51'711.2
2015-May-17 16:33N 35°57' E 013°58'1111.2
2015-May-17 15:33N 35°51' E 014°10'1111.0
2015-May-17 14:33N 35°45' E 014°21'1110.8
2015-May-17 13:33N 35°47' E 014°34'2 0.8
2015-May-17 10:32N 35°49' E 014°32'0 0.0
2015-May-17 09:29N 35°49' E 014°32'0 0.0
2015-May-17 07:29N 35°49' E 014°32'0 0.0
2015-May-17 06:23N 35°49' E 014°32'0 0.0
2015-May-17 05:29N 35°49' E 014°32'0 0.0
2015-May-17 04:29N 35°49' E 014°32'0 0.0
2015-May-17 03:32N 35°49' E 014°32'0 0.0
2015-May-17 02:32N 35°49' E 014°32'0 0.0
2015-May-17 01:32N 35°49' E 014°32'0 0.0
2015-May-17 00:32N 35°49' E 014°32'0 0.0
2015-May-16 23:29N 35°49' E 014°32'0 0.0
2015-May-16 22:23N 35°49' E 014°32'0 0.0
2015-May-16 21:32N 35°49' E 014°32'0 0.0
2015-May-16 20:32N 35°49' E 014°32'0 0.0
2015-May-16 19:29N 35°49' E 014°32'0 0.0
2015-May-16 18:32N 35°49' E 014°32'0 0.0
2015-May-16 17:29N 35°49' E 014°32'0 0.0
2015-May-16 16:29N 35°49' E 014°32'0 0.0
2015-May-16 15:29N 35°49' E 014°32'0 0.0
2015-May-16 14:29N 35°49' E 014°32'0 0.0
2015-May-16 13:33N 35°49' E 014°32'3 3.1
2015-May-16 12:33N 35°48' E 014°36'4 3.6
2015-May-16 11:31N 35°51' E 014°39'0 0.0
2015-May-16 10:33N 35°51' E 014°39'0 0.0
2015-May-16 09:33N 35°51' E 014°39'0 0.0
2015-May-16 08:33N 35°51' E 014°39'0 0.1
2015-May-16 07:30N 35°51' E 014°39'0 0.0
2015-May-16 06:33N 35°51' E 014°39'0 0.0
2015-May-16 05:33N 35°51' E 014°39'0 0.0
2015-May-16 04:30N 35°51' E 014°39'0 0.0
2015-May-16 03:33N 35°51' E 014°39'0 0.1
2015-May-16 02:33N 35°51' E 014°39'0 0.0
2015-May-16 01:33N 35°51' E 014°39'0 0.0
2015-May-16 00:33N 35°51' E 014°39'0 0.0
2015-May-15 23:33N 35°51' E 014°39'0 0.1
2015-May-15 22:33N 35°51' E 014°39'0 0.0
2015-May-15 21:33N 35°51' E 014°39'0 0.1
2015-May-15 20:33N 35°51' E 014°39'0 0.0
2015-May-15 19:33N 35°51' E 014°39'0 0.1
2015-May-15 18:33N 35°51' E 014°39'0 0.0
2015-May-15 17:33N 35°51' E 014°39'0 0.0
2015-May-15 16:33N 35°51' E 014°39'0 0.0
2015-May-15 15:33N 35°51' E 014°39'0 0.0
2015-May-15 14:30N 35°51' E 014°39'0 0.0
2015-May-15 13:33N 35°51' E 014°39'0 0.0
2015-May-15 12:33N 35°51' E 014°39'0 0.0
2015-May-15 11:33N 35°51' E 014°39'0 0.0
2015-May-15 10:33N 35°51' E 014°39'0 0.0
2015-May-15 09:33N 35°51' E 014°39'0 0.0
2015-May-15 08:33N 35°51' E 014°39'0 0.0
2015-May-15 07:33N 35°51' E 014°39'0 0.0
2015-May-15 06:33N 35°51' E 014°39'0 0.0
2015-May-15 05:33N 35°51' E 014°39'0 0.0
2015-May-15 04:33N 35°51' E 014°39'5 5.1
2015-May-15 03:33N 35°47' E 014°35'1110.7
2015-May-15 02:33N 35°45' E 014°22'1010.2
2015-May-15 01:33N 35°51' E 014°11'1010.4
2015-May-15 00:33N 35°56' E 014°00'1111.0
2015-May-14 23:33N 36°02' E 013°49'1111.3
2015-May-14 22:33N 36°08' E 013°37'1211.6
2015-May-14 21:33N 36°14' E 013°25'1111.4
2015-May-14 20:33N 36°20' E 013°13'1111.5
2015-May-14 19:33N 36°26' E 013°01'1211.7
2015-May-14 18:33N 36°33' E 012°48'1211.6
2015-May-14 17:33N 36°39' E 012°36'1211.8
2015-May-14 16:33N 36°45' E 012°24'1211.8
2015-May-14 15:33N 36°52' E 012°11'1211.7
2015-May-14 14:33N 36°58' E 011°59'1211.7
2015-May-14 13:33N 37°04' E 011°46'1212.1
2015-May-14 12:33N 37°10' E 011°34'1212.3
2015-May-14 11:33N 37°17' E 011°21'2712.1
2015-May-14 09:17N 37°27' E 010°48'1112.4
2015-May-14 08:23N 37°30' E 010°35'  

Dump ship's entire track history